Time;durP1;ratioP1;P1;durP2;ratioP2;P2;SDS_P1;SDS_P2;PMS_P1;PMS_P2;Temp;Humidity;BMP_temperature;BMP_pressure;BME280_temperature;BME280_humidity;BME280_pressure;Samples;Min_cycle;Max_cycle;Signal;HPM_P1;HPM_P2
2023/09/22 00:02:12;;;;;;;15.60;10.18;;;16.50;99.90;;;;;;5068131;28;21458;-73
2023/09/22 00:04:39;;;;;;;18.50;9.38;;;16.50;99.90;;;;;;5074715;28;20016;-73
2023/09/22 00:07:06;;;;;;;20.25;11.13;;;16.60;99.90;;;;;;5070992;28;20396;-72
2023/09/22 00:09:32;;;;;;;20.27;9.93;;;16.60;99.90;;;;;;5073444;28;20051;-72
2023/09/22 00:11:59;;;;;;;17.58;10.57;;;16.50;99.90;;;;;;5074131;28;20048;-72
2023/09/22 00:14:25;;;;;;;19.25;10.30;;;16.50;99.90;;;;;;5065950;28;20108;-72
2023/09/22 00:16:51;;;;;;;17.83;10.18;;;16.60;99.90;;;;;;5077903;28;20441;-72
2023/09/22 00:19:16;;;;;;;14.88;9.77;;;16.50;99.90;;;;;;5069858;28;20024;-72
2023/09/22 00:21:42;;;;;;;20.00;10.02;;;16.50;99.90;;;;;;5076251;28;20358;-72
2023/09/22 00:24:08;;;;;;;15.93;10.88;;;16.50;99.90;;;;;;5081924;28;20016;-72
2023/09/22 00:26:34;;;;;;;22.52;11.23;;;16.50;99.90;;;;;;5065252;28;20033;-72
2023/09/22 00:28:59;;;;;;;15.73;10.07;;;16.40;99.90;;;;;;5071538;28;20404;-72
2023/09/22 00:31:25;;;;;;;19.75;10.48;;;16.40;99.90;;;;;;5073146;28;20025;-72
2023/09/22 00:33:52;;;;;;;19.85;11.27;;;16.40;99.90;;;;;;5069057;28;20040;-73
2023/09/22 00:36:18;;;;;;;20.60;10.18;;;16.40;99.90;;;;;;5076034;28;20024;-72
2023/09/22 00:38:44;;;;;;;17.63;11.07;;;16.40;99.90;;;;;;5077769;28;20387;-72
2023/09/22 00:41:10;;;;;;;21.45;11.00;;;16.40;99.90;;;;;;5079711;28;20028;-72
2023/09/22 00:43:36;;;;;;;19.90;12.18;;;16.40;99.90;;;;;;5074091;28;20024;-72
2023/09/22 00:46:02;;;;;;;28.13;13.50;;;16.30;99.90;;;;;;5079740;28;20036;-72
2023/09/22 00:48:31;;;;;;;22.60;13.02;;;16.30;99.90;;;;;;5081639;28;20024;-72
2023/09/22 00:50:57;;;;;;;23.20;11.98;;;16.20;99.90;;;;;;5080835;28;20103;-72
2023/09/22 00:53:29;;;;;;;26.15;13.98;;;16.20;99.90;;;;;;5078633;28;20511;-72
2023/09/22 00:55:56;;;;;;;23.63;13.00;;;16.20;99.90;;;;;;5083504;28;20504;-73
2023/09/22 00:58:23;;;;;;;27.58;13.18;;;16.20;99.90;;;;;;5079594;28;20024;-72
2023/09/22 01:00:49;;;;;;;24.38;13.40;;;16.20;99.90;;;;;;5075863;28;20024;-73
2023/09/22 01:03:16;;;;;;;25.10;12.40;;;16.20;99.90;;;;;;5076406;28;20025;-72
2023/09/22 01:05:42;;;;;;;22.20;11.75;;;16.20;99.90;;;;;;5087300;28;20381;-72
2023/09/22 01:08:08;;;;;;;21.45;11.50;;;16.20;99.90;;;;;;5079569;28;20124;-72
2023/09/22 01:10:38;;;;;;;26.67;12.68;;;16.20;99.90;;;;;;5083278;28;20115;-72
2023/09/22 01:13:07;;;;;;;20.73;12.40;;;16.10;99.90;;;;;;5080757;28;20024;-72
2023/09/22 01:15:37;;;;;;;20.48;12.02;;;16.10;99.90;;;;;;5070478;28;20028;-72
2023/09/22 01:18:06;;;;;;;24.13;13.23;;;16.00;99.90;;;;;;5075595;28;20059;-72
2023/09/22 01:20:43;;;;;;;25.52;12.73;;;16.00;99.90;;;;;;5079712;28;20056;-72
2023/09/22 01:23:13;;;;;;;21.95;11.55;;;16.10;99.90;;;;;;5079468;28;20025;-72
2023/09/22 01:25:40;;;;;;;19.85;12.40;;;15.90;99.90;;;;;;5076095;28;20045;-72
2023/09/22 01:28:07;;;;;;;23.90;13.10;;;15.90;99.90;;;;;;5081252;28;20021;-72
2023/09/22 01:30:33;;;;;;;23.73;12.45;;;16.00;99.90;;;;;;5079309;28;20435;-72
2023/09/22 01:33:03;;;;;;;21.23;12.02;;;16.00;99.90;;;;;;5081759;28;20103;-72
2023/09/22 01:35:32;;;;;;;20.80;13.48;;;16.00;99.90;;;;;;5088569;28;20021;-72
2023/09/22 01:38:12;;;;;;;29.73;12.35;;;16.00;99.90;;;;;;5078424;28;20034;-72
2023/09/22 01:40:39;;;;;;;19.27;11.05;;;15.80;99.90;;;;;;5083341;28;20036;-72
2023/09/22 01:43:05;;;;;;;20.30;11.55;;;15.90;99.90;;;;;;5070649;28;20059;-72
2023/09/22 01:45:31;;;;;;;22.95;11.35;;;15.90;99.90;;;;;;5072654;28;20076;-72
2023/09/22 01:47:56;;;;;;;24.30;10.93;;;15.80;99.90;;;;;;5077178;28;20494;-72
2023/09/22 01:50:22;;;;;;;20.00;12.30;;;15.80;99.90;;;;;;5075602;28;20157;-72
2023/09/22 01:52:48;;;;;;;22.95;11.38;;;15.80;99.90;;;;;;5082612;28;22199;-72
2023/09/22 01:55:14;;;;;;;23.00;11.80;;;15.80;99.90;;;;;;5067843;28;20044;-73
2023/09/22 01:57:39;;;;;;;18.95;11.90;;;15.80;99.90;;;;;;5080700;28;20031;-72
2023/09/22 02:00:06;;;;;;;29.33;12.48;;;15.70;99.90;;;;;;5070796;28;20035;-72
2023/09/22 02:02:34;;;;;;;25.08;10.95;;;15.70;99.90;;;;;;5072178;28;20386;-72
2023/09/22 02:05:03;;;;;;;19.05;11.40;;;15.60;99.90;;;;;;5081450;28;20073;-72
2023/09/22 02:07:29;;;;;;;21.40;11.90;;;15.70;99.90;;;;;;5073975;28;20025;-72
2023/09/22 02:09:54;;;;;;;17.83;10.77;;;15.70;99.90;;;;;;5073836;28;20389;-72
2023/09/22 02:12:20;;;;;;;21.45;11.05;;;15.70;99.90;;;;;;5071303;28;20469;-72
2023/09/22 02:14:46;;;;;;;17.45;10.55;;;15.70;99.90;;;;;;5079397;28;20473;-72
2023/09/22 02:17:12;;;;;;;15.90;9.88;;;15.70;99.90;;;;;;5080535;28;20428;-72
2023/09/22 02:19:38;;;;;;;19.75;11.20;;;15.70;99.90;;;;;;5073942;28;20107;-72
2023/09/22 02:22:05;;;;;;;21.38;10.75;;;15.80;99.90;;;;;;5081455;28;20032;-72
2023/09/22 02:24:31;;;;;;;21.25;10.23;;;15.80;99.90;;;;;;5070075;28;20056;-72
2023/09/22 02:26:57;;;;;;;19.23;10.38;;;15.60;99.90;;;;;;5084246;28;20121;-72
2023/09/22 02:29:23;;;;;;;19.42;10.45;;;15.60;99.90;;;;;;5080886;28;20016;-73
2023/09/22 02:31:48;;;;;;;20.50;10.18;;;15.70;99.90;;;;;;5077797;28;20141;-72
2023/09/22 02:34:20;;;;;;;20.60;10.38;;;15.70;99.90;;;;;;5078040;28;20019;-72
2023/09/22 02:36:47;;;;;;;15.43;9.73;;;15.70;99.90;;;;;;5071365;28;20031;-72
2023/09/22 02:39:12;;;;;;;12.57;9.70;;;15.60;99.90;;;;;;5083472;28;20028;-72
2023/09/22 02:41:38;;;;;;;19.05;10.05;;;15.60;99.90;;;;;;5077324;28;20303;-73
2023/09/22 02:44:07;;;;;;;13.38;9.80;;;15.60;99.90;;;;;;5069737;28;20039;-72
2023/09/22 02:46:34;;;;;;;18.17;9.13;;;15.70;99.90;;;;;;5074934;28;20031;-73
2023/09/22 02:49:00;;;;;;;16.52;8.95;;;15.70;99.90;;;;;;5069444;28;20424;-72
2023/09/22 02:51:26;;;;;;;15.60;9.13;;;15.60;99.90;;;;;;5077992;28;20077;-72
2023/09/22 02:53:54;;;;;;;12.00;8.80;;;15.50;99.90;;;;;;5070339;28;20029;-71
2023/09/22 02:56:20;;;;;;;14.27;8.07;;;15.60;99.90;;;;;;5074674;28;20515;-72
2023/09/22 02:58:46;;;;;;;12.80;8.63;;;15.60;99.90;;;;;;5078049;28;20017;-72
2023/09/22 03:01:14;;;;;;;11.57;6.80;;;15.60;99.90;;;;;;5075566;28;20469;-72
2023/09/22 03:03:43;;;;;;;13.38;8.18;;;15.50;99.90;;;;;;5070886;28;20017;-72
2023/09/22 03:06:12;;;;;;;13.65;8.02;;;15.50;99.90;;;;;;5067818;28;20078;-72
2023/09/22 03:08:41;;;;;;;13.98;7.78;;;15.50;99.90;;;;;;5077635;28;20497;-72
2023/09/22 03:11:07;;;;;;;12.00;6.75;;;15.50;99.90;;;;;;5071515;28;20115;-72
2023/09/22 03:13:33;;;;;;;13.38;7.28;;;15.50;99.90;;;;;;5079198;28;20095;-72
2023/09/22 03:16:00;;;;;;;11.82;6.47;;;15.50;99.90;;;;;;5071143;28;20035;-72
2023/09/22 03:18:26;;;;;;;8.35;5.60;;;15.50;99.90;;;;;;5075307;28;20021;-72
2023/09/22 03:20:52;;;;;;;13.13;6.22;;;15.50;99.90;;;;;;5073765;28;20107;-72
2023/09/22 03:23:17;;;;;;;10.70;6.10;;;15.40;99.90;;;;;;5069966;28;20147;-72
2023/09/22 03:25:47;;;;;;;13.30;6.22;;;15.30;99.90;;;;;;5073895;28;20032;-73
2023/09/22 03:28:13;;;;;;;11.35;5.82;;;15.40;99.90;;;;;;5074087;28;20157;-73
2023/09/22 03:30:40;;;;;;;10.95;5.30;;;15.40;99.90;;;;;;5072836;28;20031;-72
2023/09/22 03:33:05;;;;;;;8.25;4.80;;;15.40;99.90;;;;;;5078257;28;20496;-72
2023/09/22 03:35:31;;;;;;;12.13;5.38;;;15.40;99.90;;;;;;5070265;28;20028;-73
2023/09/22 03:37:58;;;;;;;7.28;4.57;;;15.40;99.90;;;;;;5079840;28;20024;-73
2023/09/22 03:40:33;;;;;;;6.22;4.28;;;15.40;99.90;;;;;;5076320;28;20028;-73
2023/09/22 03:43:03;;;;;;;7.40;4.75;;;15.50;99.90;;;;;;5072566;28;20116;-73
2023/09/22 03:45:29;;;;;;;12.02;5.03;;;15.40;99.90;;;;;;5072396;28;20036;-72
2023/09/22 03:47:55;;;;;;;7.90;4.45;;;15.50;99.90;;;;;;5069588;28;20028;-72
2023/09/22 03:50:21;;;;;;;9.38;5.05;;;15.50;99.90;;;;;;5073307;28;20109;-72
2023/09/22 03:52:46;;;;;;;10.43;5.10;;;15.50;99.90;;;;;;5069561;28;20036;-72
2023/09/22 03:55:14;;;;;;;11.30;5.32;;;15.60;99.90;;;;;;5067364;28;20389;-72
2023/09/22 03:57:40;;;;;;;6.82;4.82;;;15.50;99.90;;;;;;5077123;28;20111;-72
2023/09/22 04:00:16;;;;;;;8.73;4.75;;;15.50;99.90;;;;;;5069101;28;20532;-72
2023/09/22 04:02:42;;;;;;;7.88;4.60;;;15.50;99.90;;;;;;5077508;28;20107;-72
2023/09/22 04:05:08;;;;;;;8.63;4.40;;;15.50;99.90;;;;;;5068194;28;20575;-73
2023/09/22 04:07:35;;;;;;;4.38;3.30;;;15.60;99.90;;;;;;5073700;28;20024;-72
2023/09/22 04:10:03;;;;;;;11.77;3.78;;;15.60;99.90;;;;;;5071870;28;20033;-72
2023/09/22 04:12:29;;;;;;;6.40;3.88;;;15.50;99.90;;;;;;5071413;28;20418;-72
2023/09/22 04:14:56;;;;;;;9.00;4.05;;;15.50;99.90;;;;;;5078010;28;20024;-72
2023/09/22 04:17:21;;;;;;;9.52;3.65;;;15.50;99.90;;;;;;5068605;28;20051;-72
2023/09/22 04:19:49;;;;;;;7.70;3.75;;;15.40;99.90;;;;;;5080223;28;20024;-72
2023/09/22 04:22:16;;;;;;;9.32;3.95;;;15.40;99.90;;;;;;5070839;28;20029;-72
2023/09/22 04:24:47;;;;;;;8.18;3.70;;;15.40;99.90;;;;;;5073258;28;20103;-72
2023/09/22 04:27:16;;;;;;;7.35;3.60;;;15.30;99.90;;;;;;5079130;28;20039;-72
2023/09/22 04:29:42;;;;;;;5.75;2.92;;;15.30;99.90;;;;;;5066712;28;20044;-72
2023/09/22 04:32:08;;;;;;;6.60;3.63;;;15.30;99.90;;;;;;5064119;28;20117;-72
2023/09/22 04:34:35;;;;;;;6.45;3.88;;;15.40;99.90;;;;;;5069299;28;20032;-72
2023/09/22 04:37:04;;;;;;;8.43;3.30;;;15.30;99.90;;;;;;5071032;28;20529;-72
2023/09/22 04:39:31;;;;;;;9.85;3.67;;;15.30;99.90;;;;;;5074752;28;20342;-72
2023/09/22 04:41:59;;;;;;;9.73;3.25;;;15.40;99.90;;;;;;5071047;28;20532;-72
2023/09/22 04:44:24;;;;;;;5.95;3.00;;;15.40;99.90;;;;;;5082487;28;20119;-72
2023/09/22 04:46:50;;;;;;;7.00;3.33;;;15.40;99.90;;;;;;5071060;28;20119;-72
2023/09/22 04:49:16;;;;;;;7.82;3.30;;;15.30;99.90;;;;;;5072789;28;20441;-72
2023/09/22 04:51:42;;;;;;;7.05;3.50;;;15.40;99.90;;;;;;5077460;28;20107;-72
2023/09/22 04:54:08;;;;;;;6.55;3.58;;;15.40;99.90;;;;;;5079677;28;20096;-72
2023/09/22 04:56:34;;;;;;;5.22;3.25;;;15.40;99.90;;;;;;5077545;28;20135;-72
2023/09/22 04:59:00;;;;;;;10.45;3.63;;;15.40;99.90;;;;;;5075602;28;20077;-73
2023/09/22 05:01:26;;;;;;;8.95;3.25;;;15.30;99.90;;;;;;5066199;28;20105;-72
2023/09/22 05:03:52;;;;;;;6.28;2.75;;;15.30;99.90;;;;;;5069446;28;20012;-73
2023/09/22 05:06:18;;;;;;;3.90;2.92;;;15.30;99.90;;;;;;5079844;28;20399;-73
2023/09/22 05:08:43;;;;;;;6.43;3.40;;;15.30;99.90;;;;;;5068919;28;20108;-72
2023/09/22 05:11:09;;;;;;;12.88;3.67;;;15.30;99.90;;;;;;5079849;28;20028;-72
2023/09/22 05:13:35;;;;;;;10.90;3.15;;;15.30;99.90;;;;;;5078295;28;20047;-72
2023/09/22 05:16:13;;;;;;;6.93;3.45;;;15.20;99.90;;;;;;5072468;28;20024;-73
2023/09/22 05:18:39;;;;;;;8.10;3.60;;;15.20;99.90;;;;;;5074695;28;20024;-73
2023/09/22 05:21:06;;;;;;;4.38;3.03;;;15.30;99.90;;;;;;5072339;28;20027;-73
2023/09/22 05:23:35;;;;;;;6.63;2.97;;;15.20;99.90;;;;;;5087828;28;20025;-73
2023/09/22 05:26:08;;;;;;;4.65;3.17;;;15.20;99.90;;;;;;5086039;28;20044;-73
2023/09/22 05:28:35;;;;;;;5.82;3.00;;;15.20;99.90;;;;;;5072897;28;20046;-73
2023/09/22 05:31:03;;;;;;;3.88;3.00;;;15.10;99.90;;;;;;5072013;28;20477;-73
2023/09/22 05:33:29;;;;;;;7.22;3.80;;;15.10;99.90;;;;;;5075124;28;20048;-73
2023/09/22 05:35:55;;;;;;;6.18;3.40;;;15.10;99.90;;;;;;5076188;28;20432;-73
2023/09/22 05:38:21;;;;;;;5.63;2.80;;;15.10;99.90;;;;;;5072037;28;20020;-74
2023/09/22 05:40:46;;;;;;;4.78;2.60;;;15.00;99.90;;;;;;5075902;28;20554;-73
2023/09/22 05:43:14;;;;;;;7.72;3.20;;;15.00;99.90;;;;;;5078234;28;20435;-73
2023/09/22 05:45:41;;;;;;;7.25;3.08;;;15.00;99.90;;;;;;5065467;28;20057;-75
2023/09/22 05:48:10;;;;;;;5.15;3.05;;;14.90;99.90;;;;;;5077201;28;20484;-74
2023/09/22 05:50:36;;;;;;;5.10;2.75;;;15.00;99.90;;;;;;5076325;28;20040;-73
2023/09/22 05:53:08;;;;;;;5.20;3.25;;;15.00;99.90;;;;;;5078849;28;20031;-75
2023/09/22 05:55:34;;;;;;;5.47;3.08;;;15.00;99.90;;;;;;5067807;28;20032;-75
2023/09/22 05:58:00;;;;;;;6.45;2.97;;;14.90;99.90;;;;;;5075404;28;20017;-75
2023/09/22 06:00:30;;;;;;;4.80;3.00;;;14.90;99.90;;;;;;5066663;28;20565;-73
2023/09/22 06:02:56;;;;;;;9.48;3.10;;;15.00;99.90;;;;;;5076772;28;20016;-75
2023/09/22 06:05:22;;;;;;;6.32;2.78;;;15.00;99.90;;;;;;5080691;28;20366;-72
2023/09/22 06:07:49;;;;;;;7.72;2.97;;;15.00;99.90;;;;;;5068985;28;20039;-73
2023/09/22 06:10:15;;;;;;;7.38;2.58;;;15.00;99.90;;;;;;5071324;28;20492;-73
2023/09/22 06:12:41;;;;;;;7.10;3.00;;;15.10;99.90;;;;;;5082713;28;20020;-75
2023/09/22 06:15:12;;;;;;;10.95;3.67;;;15.00;99.90;;;;;;5076888;28;20024;-75
2023/09/22 06:17:38;;;;;;;8.65;2.83;;;15.00;99.90;;;;;;5066518;28;20025;-73
2023/09/22 06:20:15;;;;;;;4.57;2.65;;;14.90;99.90;;;;;;5076904;28;20201;-75
2023/09/22 06:22:42;;;;;;;11.55;3.40;;;14.80;99.90;;;;;;5064094;28;20048;-75
2023/09/22 06:25:09;;;;;;;6.68;3.30;;;14.80;99.90;;;;;;5073783;28;20008;-74
2023/09/22 06:27:35;;;;;;;6.30;3.30;;;14.80;99.90;;;;;;5062355;28;20032;-73
2023/09/22 06:30:01;;;;;;;6.10;3.47;;;14.90;99.90;;;;;;5067418;28;20551;-75
2023/09/22 06:32:27;;;;;;;5.47;3.08;;;14.90;99.90;;;;;;5073605;28;20020;-75
2023/09/22 06:34:53;;;;;;;3.47;3.10;;;14.90;99.90;;;;;;5075761;28;20028;-76
2023/09/22 06:37:22;;;;;;;10.65;2.95;;;14.90;99.90;;;;;;5069208;28;20260;-73
2023/09/22 06:39:47;;;;;;;6.10;3.47;;;14.90;99.90;;;;;;5078143;28;20020;-72
2023/09/22 06:42:13;;;;;;;7.28;3.30;;;14.90;99.90;;;;;;5074330;28;20116;-75
2023/09/22 06:44:39;;;;;;;3.85;3.35;;;14.80;99.90;;;;;;5071072;28;20020;-74
2023/09/22 06:47:05;;;;;;;6.30;2.47;;;14.80;99.90;;;;;;5076266;28;20028;-73
2023/09/22 06:49:33;;;;;;;5.63;2.35;;;14.80;99.90;;;;;;5069922;28;20466;-74
2023/09/22 06:52:00;;;;;;;2.83;1.95;;;14.70;99.90;;;;;;5070886;28;20020;-73
2023/09/22 06:54:26;;;;;;;8.80;2.38;;;14.70;99.90;;;;;;5070858;28;20035;-74
2023/09/22 06:56:54;;;;;;;7.50;2.40;;;14.70;99.90;;;;;;5072470;28;20020;-72
2023/09/22 06:59:22;;;;;;;4.55;1.90;;;14.70;99.90;;;;;;5079278;28;20484;-73
2023/09/22 07:01:48;;;;;;;8.60;2.22;;;14.80;99.90;;;;;;5070110;28;20012;-73
2023/09/22 07:04:13;;;;;;;2.75;1.75;;;14.80;99.90;;;;;;5077975;28;20036;-72
2023/09/22 07:06:40;;;;;;;6.57;2.20;;;14.80;99.90;;;;;;5078987;28;20036;-72
2023/09/22 07:09:09;;;;;;;8.38;1.67;;;14.90;99.90;;;;;;5072073;28;20025;-72
2023/09/22 07:11:40;;;;;;;2.97;1.70;;;14.90;99.90;;;;;;5065303;28;20043;-73
2023/09/22 07:14:07;;;;;;;3.00;1.63;;;15.00;99.90;;;;;;5068741;28;20024;-73
2023/09/22 07:16:33;;;;;;;4.35;1.88;;;15.10;99.90;;;;;;5068034;28;20020;-74
2023/09/22 07:18:59;;;;;;;2.42;1.60;;;15.20;99.90;;;;;;5071137;28;20089;-72
2023/09/22 07:21:25;;;;;;;2.97;1.52;;;15.20;99.90;;;;;;5076292;28;20107;-73
2023/09/22 07:23:51;;;;;;;2.50;1.30;;;15.20;99.90;;;;;;5068765;28;20111;-74
2023/09/22 07:26:16;;;;;;;6.05;1.55;;;15.30;99.90;;;;;;5075145;28;20036;-74
2023/09/22 07:28:42;;;;;;;2.78;1.42;;;15.30;99.90;;;;;;5080789;28;20024;-72
2023/09/22 07:31:16;;;;;;;6.03;2.00;;;15.40;99.90;;;;;;5069371;28;20392;-72
2023/09/22 07:33:43;;;;;;;3.28;1.70;;;15.50;99.90;;;;;;5077661;28;20028;-73
2023/09/22 08:31:17;;;;;;;3.42;1.27;;;14.30;99.90;;;;;;5069977;27;20434;-73
2023/09/22 08:33:43;;;;;;;1.98;1.20;;;15.20;99.90;;;;;;5041990;28;20036;-71
2023/09/22 08:36:09;;;;;;;4.50;1.50;;;15.50;99.90;;;;;;5039725;28;20029;-69
2023/09/22 08:38:35;;;;;;;2.22;1.38;;;15.60;99.90;;;;;;5043127;28;20029;-70
2023/09/22 08:41:04;;;;;;;1.45;1.08;;;15.70;99.90;;;;;;5039463;28;20366;-69
2023/09/22 08:43:32;;;;;;;2.95;1.10;;;15.70;99.90;;;;;;5043736;28;20389;-70
2023/09/22 08:45:59;;;;;;;2.83;1.50;;;15.80;99.90;;;;;;5045283;28;20026;-70
2023/09/22 08:48:25;;;;;;;2.78;1.02;;;15.90;99.90;;;;;;5041617;28;20508;-69
2023/09/22 08:50:51;;;;;;;5.97;1.50;;;16.00;99.90;;;;;;5042942;28;20029;-72
2023/09/22 08:53:17;;;;;;;2.53;1.25;;;16.10;99.90;;;;;;5043975;28;20436;-73
2023/09/22 08:55:43;;;;;;;4.40;1.20;;;16.40;99.90;;;;;;5046339;28;20116;-71
2023/09/22 08:58:09;;;;;;;4.85;1.20;;;16.60;99.90;;;;;;5033742;28;20108;-69
2023/09/22 09:00:35;;;;;;;2.58;0.95;;;16.60;99.90;;;;;;5039530;28;20040;-72
2023/09/22 09:03:09;;;;;;;5.03;1.67;;;16.80;99.90;;;;;;5040649;28;20092;-72
2023/09/22 09:05:36;;;;;;;2.47;1.23;;;16.60;99.90;;;;;;5035263;28;20030;-74
2023/09/22 09:08:17;;;;;;;2.22;1.10;;;16.60;99.90;;;;;;5048303;28;20021;-73
2023/09/22 09:10:45;;;;;;;3.22;1.25;;;16.70;99.90;;;;;;5046408;28;20124;-73
2023/09/22 09:13:18;;;;;;;4.45;1.20;;;16.70;99.90;;;;;;5047592;28;20544;-72
2023/09/22 09:15:45;;;;;;;;;;;16.80;99.90;;;;;;5042996;28;20389;-71
2023/09/22 09:18:15;;;;;;;1.90;1.20;;;16.90;99.90;;;;;;5043346;28;19982;-72
2023/09/22 09:20:41;;;;;;;4.70;1.20;;;17.00;99.90;;;;;;5038938;28;20751;-71
2023/09/22 09:23:17;;;;;;;6.07;1.73;;;17.00;99.90;;;;;;5043246;28;20373;-74
2023/09/22 09:25:55;;;;;;;3.05;1.40;;;17.00;99.90;;;;;;5034751;28;20029;-73
2023/09/22 09:28:22;;;;;;;2.22;1.13;;;17.10;99.90;;;;;;5040128;28;20076;-72
2023/09/22 09:30:51;;;;;;;5.88;1.50;;;17.10;99.90;;;;;;5035589;28;20486;-72
2023/09/22 09:33:24;;;;;;;2.83;1.33;;;17.30;99.90;;;;;;5019940;28;20367;-73
2023/09/22 09:35:50;;;;;;;;;;;17.40;99.90;;;;;;5035384;28;20021;-74
2023/09/22 09:38:18;;;;;;;3.75;1.55;;;17.50;99.90;;;;;;5025749;28;19917;-72
2023/09/22 09:40:44;;;;;;;2.95;1.33;;;17.70;99.90;;;;;;5022555;28;20026;-75
2023/09/22 09:43:12;;;;;;;3.33;1.10;;;17.80;99.90;;;;;;5028456;28;20036;-72
2023/09/22 09:45:57;;;;;;;2.33;1.50;;;17.90;99.90;;;;;;5025972;28;20385;-71
2023/09/22 09:48:24;;;;;;;3.47;1.30;;;17.80;99.90;;;;;;5028446;28;20021;-76
2023/09/22 09:50:52;;;;;;;5.82;1.58;;;17.90;99.90;;;;;;5028777;28;20045;-73
2023/09/22 09:53:31;;;;;;;4.68;1.20;;;18.00;99.90;;;;;;5030647;28;20056;-74
2023/09/22 09:56:00;;;;;;;1.42;1.00;;;18.20;99.90;;;;;;5016728;28;20036;-75
2023/09/22 09:58:35;;;;;;;2.53;1.58;;;18.30;99.90;;;;;;5024844;28;20046;-76
2023/09/22 10:01:06;;;;;;;3.53;1.23;;;18.40;99.90;;;;;;5027113;28;20048;-74
2023/09/22 10:03:33;;;;;;;3.03;1.30;;;18.60;99.90;;;;;;5031074;28;20109;-74
2023/09/22 10:06:02;;;;;;;2.63;0.82;;;18.70;99.90;;;;;;5019386;28;20037;-76
2023/09/22 10:08:28;;;;;;;2.83;0.95;;;19.00;99.90;;;;;;5021522;28;20037;-75
2023/09/22 10:10:57;;;;;;;4.88;0.95;;;19.10;99.90;;;;;;5033282;28;20032;-74
2023/09/22 10:13:23;;;;;;;1.77;0.77;;;19.20;99.90;;;;;;5026791;28;20056;-76
2023/09/22 10:15:59;;;;;;;2.05;1.15;;;19.20;99.90;;;;;;5029528;28;20493;-73
2023/09/22 10:18:51;;;;;;;3.40;1.10;;;19.50;99.90;;;;;;5021278;28;20037;-74
2023/09/22 10:21:29;;;;;;;4.22;0.90;;;19.60;99.90;;;;;;5026131;28;20040;-75
2023/09/22 10:24:37;;;;;;;3.30;1.20;;;19.50;99.90;;;;;;5019416;28;20021;-75
2023/09/22 10:27:08;;;;;;;3.83;1.20;;;19.60;99.90;;;;;;5018794;28;20022;-75
2023/09/22 10:29:34;;;;;;;3.65;0.98;;;19.60;99.90;;;;;;5015610;28;20041;-74
2023/09/22 10:32:15;;;;;;;1.42;1.13;;;19.70;99.90;;;;;;5025682;28;20022;-74
2023/09/22 10:34:58;;;;;;;1.92;1.20;;;19.60;99.90;;;;;;5023233;28;20022;-76
2023/09/22 10:37:27;;;;;;;2.75;1.20;;;19.70;99.90;;;;;;5033853;28;20374;-74
2023/09/22 10:39:58;;;;;;;3.63;1.33;;;19.60;99.90;;;;;;5017582;28;20135;-77
2023/09/22 10:42:26;;;;;;;2.53;1.00;;;19.50;99.90;;;;;;5024556;28;20112;-75
2023/09/22 10:45:03;;;;;;;2.33;0.80;;;19.50;99.90;;;;;;5022535;28;20029;-77
2023/09/22 10:47:36;;;;;;;1.27;0.90;;;19.70;99.90;;;;;;5025027;28;20101;-75
2023/09/22 10:50:14;;;;;;;1.60;1.08;;;19.90;99.90;;;;;;5024973;28;20029;-74
2023/09/22 10:52:48;;;;;;;1.67;1.10;;;19.90;99.90;;;;;;5023868;28;20044;-74
2023/09/22 10:55:20;;;;;;;2.50;0.95;;;20.00;99.90;;;;;;5032354;28;20032;-74
2023/09/22 10:57:46;;;;;;;6.53;0.90;;;20.00;99.90;;;;;;5026212;28;20014;-74
2023/09/22 11:00:13;;;;;;;2.88;0.90;;;20.10;99.90;;;;;;5034447;28;20039;-75
2023/09/22 11:02:39;;;;;;;2.45;1.25;;;20.10;99.90;;;;;;5017568;28;20105;-75
2023/09/22 11:05:05;;;;;;;4.20;1.30;;;20.20;99.90;;;;;;5023837;28;20117;-75
2023/09/22 11:07:34;;;;;;;3.03;1.20;;;20.30;99.90;;;;;;5020148;28;20117;-75
2023/09/22 11:10:02;;;;;;;3.22;1.02;;;20.30;99.90;;;;;;5025916;28;20033;-74
2023/09/22 11:12:28;;;;;;;1.90;1.27;;;20.00;99.90;;;;;;5024688;28;20025;-77
2023/09/22 11:14:55;;;;;;;3.00;1.30;;;19.90;99.90;;;;;;5023111;28;20445;-75
2023/09/22 11:17:22;;;;;;;1.70;1.10;;;19.90;99.90;;;;;;5025247;28;20033;-74
2023/09/22 11:19:54;;;;;;;2.03;0.93;;;19.80;99.90;;;;;;5032184;28;20059;-74
2023/09/22 11:22:20;;;;;;;4.40;1.48;;;20.00;99.90;;;;;;5019486;28;20029;-73
2023/09/22 11:24:47;;;;;;;1.63;0.88;;;20.00;99.90;;;;;;5023637;28;20052;-75
2023/09/22 11:27:13;;;;;;;5.25;1.23;;;20.20;99.90;;;;;;5027763;28;20025;-78
2023/09/22 11:29:39;;;;;;;3.03;1.20;;;20.40;99.90;;;;;;5028742;28;20132;-75
2023/09/22 11:32:08;;;;;;;5.10;1.17;;;20.50;99.90;;;;;;5022058;28;20100;-77
2023/09/22 11:34:54;;;;;;;1.70;0.98;;;20.40;99.90;;;;;;5024303;28;20888;-74
2023/09/22 11:37:30;;;;;;;1.25;1.00;;;20.60;99.90;;;;;;5019724;28;20471;-73
2023/09/22 11:39:57;;;;;;;3.15;0.65;;;20.70;99.90;;;;;;5021030;28;20470;-77
2023/09/22 11:42:23;;;;;;;2.28;0.70;;;20.60;99.90;;;;;;5020855;28;20061;-75
2023/09/22 11:44:57;;;;;;;1.42;0.75;;;20.80;99.90;;;;;;5022891;28;20553;-77
2023/09/22 11:47:23;;;;;;;1.70;0.80;;;20.80;99.90;;;;;;5022539;28;20026;-74
2023/09/22 11:49:48;;;;;;;0.80;0.55;;;20.80;99.90;;;;;;5020591;28;20084;-75
2023/09/22 11:52:14;;;;;;;2.15;0.80;;;20.70;99.90;;;;;;5025064;28;20100;-73
2023/09/22 11:54:40;;;;;;;3.17;0.90;;;20.80;99.90;;;;;;5029814;28;20488;-77
2023/09/22 11:57:05;;;;;;;3.03;0.80;;;20.80;99.90;;;;;;5028131;28;20061;-78
2023/09/22 11:59:34;;;;;;;4.22;0.93;;;20.60;99.90;;;;;;5020472;28;20057;-76
2023/09/22 12:02:00;;;;;;;0.75;0.65;;;20.50;99.90;;;;;;5025052;28;20265;-76
2023/09/22 12:04:26;;;;;;;3.25;0.75;;;20.20;99.90;;;;;;5022005;28;20463;-76
2023/09/22 12:06:53;;;;;;;2.13;0.90;;;20.00;99.90;;;;;;5018333;28;20049;-75
2023/09/22 12:09:19;;;;;;;1.00;0.68;;;20.00;99.90;;;;;;5020964;28;20030;-76
2023/09/22 12:11:47;;;;;;;3.75;0.70;;;20.00;99.90;;;;;;5020691;28;20018;-76
2023/09/22 12:14:13;;;;;;;1.98;1.15;;;20.00;99.90;;;;;;5025072;28;20022;-76
2023/09/22 12:16:40;;;;;;;6.25;0.90;;;19.90;99.90;;;;;;5023980;28;20535;-76
2023/09/22 12:19:06;;;;;;;1.13;0.90;;;19.80;99.90;;;;;;5021402;28;20032;-75
2023/09/22 12:21:32;;;;;;;2.97;0.95;;;19.60;99.90;;;;;;5020594;28;20040;-75
2023/09/22 12:23:58;;;;;;;2.45;0.60;;;19.60;99.90;;;;;;5021281;28;20105;-74
2023/09/22 12:26:25;;;;;;;2.58;0.75;;;19.60;99.90;;;;;;5023442;28;20425;-76
2023/09/22 12:28:51;;;;;;;2.22;1.05;;;19.60;99.90;;;;;;5017099;28;20042;-75
2023/09/22 12:31:19;;;;;;;3.90;1.00;;;19.60;99.90;;;;;;5023043;28;20028;-75
2023/09/22 12:33:46;;;;;;;2.45;0.70;;;19.70;99.90;;;;;;5019271;28;20029;-75
2023/09/22 12:36:14;;;;;;;3.58;0.85;;;19.70;99.90;;;;;;5023527;28;20025;-74
2023/09/22 12:38:40;;;;;;;2.22;0.63;;;19.60;99.90;;;;;;5018791;28;20087;-75
2023/09/22 12:41:06;;;;;;;3.13;0.95;;;19.70;99.90;;;;;;5021899;28;20026;-74
2023/09/22 12:43:32;;;;;;;2.20;1.10;;;19.70;99.90;;;;;;5028335;28;20032;-74
2023/09/22 12:45:58;;;;;;;1.38;0.90;;;19.60;99.90;;;;;;5020129;28;20026;-75
2023/09/22 12:48:23;;;;;;;4.78;0.90;;;19.60;99.90;;;;;;5025254;28;20038;-76
2023/09/22 12:50:56;;;;;;;2.90;0.90;;;19.70;99.90;;;;;;5028161;28;20084;-74
2023/09/22 12:53:25;;;;;;;3.20;0.95;;;19.70;99.90;;;;;;5015733;28;20022;-75
2023/09/22 12:55:57;;;;;;;2.70;0.80;;;19.70;99.90;;;;;;5016762;28;20041;-74
2023/09/22 12:58:27;;;;;;;3.38;0.93;;;19.80;99.90;;;;;;5026541;28;20034;-75
2023/09/22 13:00:57;;;;;;;3.10;0.88;;;19.70;99.90;;;;;;5021359;28;20026;-74
2023/09/22 13:03:23;;;;;;;2.63;0.90;;;19.80;99.90;;;;;;5022454;28;20027;-75
2023/09/22 13:05:49;;;;;;;1.00;0.50;;;19.70;99.90;;;;;;5018695;28;20076;-74
2023/09/22 13:08:17;;;;;;;4.25;1.00;;;19.80;99.90;;;;;;5023886;28;20029;-74
2023/09/22 13:10:43;;;;;;;2.05;1.00;;;19.70;99.90;;;;;;5030093;28;20121;-75
2023/09/22 13:13:14;;;;;;;1.95;0.88;;;19.70;99.90;;;;;;5028945;28;20474;-75
2023/09/22 13:15:47;;;;;;;3.25;1.20;;;19.80;99.90;;;;;;5026523;28;20021;-74
2023/09/22 13:18:14;;;;;;;2.45;1.13;;;19.70;99.90;;;;;;5029811;28;20037;-75
2023/09/22 13:20:40;;;;;;;1.15;0.80;;;19.60;99.90;;;;;;5027442;28;20025;-75
2023/09/22 13:23:07;;;;;;;3.78;1.00;;;19.60;99.90;;;;;;5026909;28;20443;-75
2023/09/22 13:25:37;;;;;;;3.38;1.10;;;19.70;99.90;;;;;;5025305;28;20033;-75
2023/09/22 13:28:07;;;;;;;4.47;0.80;;;19.80;99.90;;;;;;5034717;28;20024;-75
2023/09/22 13:30:40;;;;;;;2.17;1.02;;;19.70;99.90;;;;;;5031407;28;20037;-75
2023/09/22 13:33:06;;;;;;;;;;;19.70;99.90;;;;;;5024466;28;20116;-75
2023/09/22 13:35:33;;;;;;;5.18;0.93;;;19.70;99.90;;;;;;5024976;28;19996;-75
2023/09/22 13:37:59;;;;;;;1.70;0.70;;;19.80;99.90;;;;;;5022561;28;20022;-74
2023/09/22 13:40:25;;;;;;;3.95;1.02;;;19.90;99.90;;;;;;5024771;28;20029;-76
2023/09/22 13:42:50;;;;;;;2.78;1.20;;;19.80;99.90;;;;;;5024641;28;21001;-76